Terminal Aerodrome Forecast
Issued by NWS Boise, ID

Home | Current Version | Previous Version | Text Only | Print | Product List | Glossary On
Versions: 1 2 3 4 5 6 7 8 9 10 11 12 13 14 15 16 17 18 19 20 21 22 23 24 25 26 27 28
886
FTUS45 KBOI 080526
TAFBNO
TAF
KBNO 080526Z 0806/0906 07006KT P6SM SCT020
     FM080700 04008KT P6SM BKN040 OVC070
     FM081200 05010KT P6SM VCSH SCT020 OVC035
     FM081500 06012KT 1/2SM SN OVC017
     FM090200 VRB06KT P6SM VCSH OVC015=

USA.gov is the U.S. government's official web portal to all federal, state and local government web resources and services.